Time;durP1;ratioP1;P1;durP2;ratioP2;P2;SDS_P1;SDS_P2;PMS_P1;PMS_P2;Temp;Humidity;BMP_temperature;BMP_pressure;BME280_temperature;BME280_humidity;BME280_pressure;Samples;Min_cycle;Max_cycle;Signal;HPM_P1;HPM_P2
2023/09/04 00:02:03;;;;;;;294.77;169.07;;;13.70;99.90;;;;;;4919724;29;20118;-83
2023/09/04 00:04:29;;;;;;;295.93;169.30;;;13.70;99.90;;;;;;4920167;29;20067;-83
2023/09/04 00:06:55;;;;;;;297.70;169.33;;;13.70;99.90;;;;;;4920126;29;20059;-84
2023/09/04 00:09:21;;;;;;;296.30;168.97;;;13.60;99.90;;;;;;4937189;29;20054;-84
2023/09/04 00:11:47;;;;;;;296.37;168.50;;;13.60;99.90;;;;;;4920196;29;20060;-83
2023/09/04 00:14:15;;;;;;;298.03;168.23;;;13.60;99.90;;;;;;4904019;29;20055;-83
2023/09/04 00:16:42;;;;;;;300.60;169.03;;;13.60;99.90;;;;;;4919747;29;20047;-84
2023/09/04 00:19:08;;;;;;;304.67;170.23;;;13.60;99.90;;;;;;4920464;29;20058;-83
2023/09/04 00:21:34;;;;;;;300.63;169.00;;;13.60;99.90;;;;;;4919594;29;20091;-84
2023/09/04 00:27:41;;;;;;;280.73;167.43;;;13.60;99.90;;;;;;4937829;29;20127;-83
2023/09/04 00:30:07;;;;;;;282.27;167.33;;;13.60;99.90;;;;;;4937339;29;20481;-84
2023/09/04 00:32:33;;;;;;;284.27;167.50;;;13.60;99.90;;;;;;4937596;29;20070;-83
2023/09/04 00:34:58;;;;;;;282.03;165.60;;;13.50;99.90;;;;;;4921190;29;20040;-84
2023/09/04 00:37:24;;;;;;;286.27;167.10;;;13.50;99.90;;;;;;4920525;29;20056;-84
2023/09/04 00:39:50;;;;;;;288.00;167.17;;;13.50;99.90;;;;;;4937731;29;20055;-84
2023/09/04 00:42:15;;;;;;;294.13;167.03;;;13.50;99.90;;;;;;4920770;29;20079;-84
2023/09/04 00:44:47;;;;;;;298.80;168.80;;;13.40;99.90;;;;;;4905888;29;20066;-84
2023/09/04 00:47:14;;;;;;;302.40;167.97;;;13.50;99.90;;;;;;4938824;29;20143;-84
2023/09/04 00:49:41;;;;;;;307.27;169.43;;;13.40;99.90;;;;;;4922085;29;20059;-84
2023/09/04 00:52:08;;;;;;;305.53;168.00;;;13.40;99.90;;;;;;4906070;29;20119;-84
2023/09/04 00:54:35;;;;;;;306.47;168.93;;;13.40;99.90;;;;;;4922318;29;20055;-84
2023/09/04 00:57:03;;;;;;;302.17;169.17;;;13.30;99.90;;;;;;4940008;29;20055;-84
2023/09/04 00:59:29;;;;;;;302.30;169.17;;;13.30;99.90;;;;;;4907009;29;20055;-83
2023/09/04 01:01:58;;;;;;;301.63;168.83;;;13.30;99.90;;;;;;4906540;29;20060;-84
2023/09/04 01:04:24;;;;;;;299.10;168.87;;;13.20;99.90;;;;;;4939301;29;20056;-84
2023/09/04 01:06:50;;;;;;;297.90;167.53;;;13.20;99.90;;;;;;4922126;29;20118;-83
2023/09/04 01:09:16;;;;;;;296.27;168.87;;;13.10;99.90;;;;;;4924444;29;20130;-84
2023/09/04 01:12:22;;;;;;;293.83;167.50;;;13.10;99.90;;;;;;4925748;29;20444;-84
2023/09/04 01:14:50;;;;;;;291.75;168.00;;;13.50;99.90;;;;;;4851088;29;20093;-83
2023/09/04 01:17:16;;;;;;;289.43;167.30;;;13.00;99.90;;;;;;4866320;29;20144;-83
2023/09/04 01:19:44;;;;;;;278.97;165.17;;;13.00;99.90;;;;;;4850904;29;20054;-83
2023/09/04 01:26:47;;;;;;;236.33;153.83;;;12.90;99.90;;;;;;4865451;29;20130;-83
2023/09/04 01:29:54;;;;;;;238.13;151.03;;;12.80;99.90;;;;;;4811030;29;20115;-83
2023/09/04 01:32:30;;;;;;;252.07;156.03;;;12.60;99.90;;;;;;4760213;29;20068;-83
2023/09/04 01:34:58;;;;;;;247.60;155.57;;;12.70;99.90;;;;;;4774130;30;20201;-84
2023/09/04 01:37:24;;;;;;;231.23;145.37;;;12.70;99.90;;;;;;4773990;30;20060;-84
2023/09/04 01:39:52;;;;;;;250.00;155.27;;;12.70;99.90;;;;;;4775134;30;20060;-83
2023/09/04 01:42:18;;;;;;;232.60;146.60;;;12.60;99.90;;;;;;4774603;30;20059;-83
2023/09/04 01:44:44;;;;;;;251.23;155.60;;;12.60;99.90;;;;;;4751369;29;20154;-83
2023/09/04 01:47:10;;;;;;;253.13;155.70;;;12.60;99.90;;;;;;4809130;29;20057;-83
2023/09/04 01:49:35;;;;;;;263.47;157.40;;;12.60;99.90;;;;;;4795306;29;20119;-84
2023/09/04 01:52:02;;;;;;;265.13;158.00;;;12.50;99.90;;;;;;4780350;29;20063;-84
2023/09/04 01:54:28;;;;;;;258.23;156.23;;;12.50;99.90;;;;;;4809441;29;20099;-84
2023/09/04 01:56:54;;;;;;;259.67;155.67;;;12.70;99.90;;;;;;4794060;29;20051;-84
2023/09/04 01:59:20;;;;;;;258.83;155.97;;;12.50;99.90;;;;;;4829280;29;20053;-84
2023/09/04 02:01:46;;;;;;;262.63;156.97;;;12.40;99.90;;;;;;4848527;29;20058;-84
2023/09/04 02:04:12;;;;;;;259.00;155.67;;;12.40;99.90;;;;;;4833271;29;20190;-84
2023/09/04 02:06:37;;;;;;;260.73;155.47;;;12.40;99.90;;;;;;4863995;29;20503;-83
2023/09/04 02:09:06;;;;;;;261.43;155.97;;;12.40;99.90;;;;;;4903153;29;20063;-83
2023/09/04 02:11:32;;;;;;;262.10;156.00;;;12.40;99.90;;;;;;4940652;29;20060;-84
2023/09/04 02:13:57;;;;;;;267.20;157.97;;;12.30;99.90;;;;;;4941014;29;20063;-84
2023/09/04 02:16:23;;;;;;;267.10;156.90;;;12.30;99.90;;;;;;4924352;29;20059;-84
2023/09/04 02:18:50;;;;;;;264.63;156.27;;;12.20;99.90;;;;;;4923170;29;20051;-84
2023/09/04 02:21:17;;;;;;;266.17;155.77;;;12.20;99.90;;;;;;4922453;29;20118;-83
2023/09/04 02:23:42;;;;;;;266.53;156.33;;;12.20;99.90;;;;;;4923121;29;20059;-83
2023/09/04 02:26:08;;;;;;;265.53;155.00;;;12.20;99.90;;;;;;4939865;29;20044;-84
2023/09/04 02:28:34;;;;;;;267.20;156.20;;;12.20;99.90;;;;;;4921711;29;20174;-84
2023/09/04 02:31:06;;;;;;;273.13;158.90;;;12.20;99.90;;;;;;4938777;29;20515;-85
2023/09/04 02:33:32;;;;;;;268.80;157.70;;;12.10;99.90;;;;;;4921722;29;20055;-84
2023/09/04 02:35:58;;;;;;;264.33;155.80;;;12.70;99.90;;;;;;4921601;29;20057;-84
2023/09/04 02:38:23;;;;;;;297.40;162.03;;;12.10;99.90;;;;;;4921945;29;20059;-85
2023/09/04 02:40:49;;;;;;;290.13;160.07;;;12.20;99.90;;;;;;4938221;29;20464;-84
2023/09/04 02:43:15;;;;;;;290.23;160.43;;;12.10;99.90;;;;;;4921512;29;20066;-84
2023/09/04 02:45:40;;;;;;;294.03;160.07;;;12.10;99.90;;;;;;4939078;29;20087;-84
2023/09/04 02:48:06;;;;;;;304.90;164.37;;;12.00;99.90;;;;;;4937977;29;20066;-84
2023/09/04 02:50:34;;;;;;;305.20;162.67;;;12.00;99.90;;;;;;4938005;29;20059;-84
2023/09/04 02:52:59;;;;;;;302.77;161.30;;;12.00;99.90;;;;;;4920785;29;20066;-84
2023/09/04 02:55:25;;;;;;;308.77;164.07;;;12.00;99.90;;;;;;4938129;29;20048;-84
2023/09/04 02:57:51;;;;;;;313.77;165.37;;;12.00;99.90;;;;;;4920957;29;20063;-84
2023/09/04 03:00:17;;;;;;;318.10;165.57;;;12.00;99.90;;;;;;4921405;29;20063;-83
2023/09/04 03:02:42;;;;;;;324.50;168.20;;;12.00;99.90;;;;;;4937647;29;20060;-83
2023/09/04 03:05:08;;;;;;;324.67;167.67;;;11.90;99.90;;;;;;4937943;29;20409;-83
2023/09/04 03:07:34;;;;;;;326.13;168.00;;;11.80;99.90;;;;;;4938560;29;20524;-83
2023/09/04 03:10:01;;;;;;;320.57;166.63;;;11.90;99.90;;;;;;4921377;29;20138;-83
2023/09/04 03:12:29;;;;;;;315.33;166.17;;;11.90;99.90;;;;;;4921361;29;20058;-83
2023/09/04 03:15:00;;;;;;;310.27;164.93;;;11.90;99.90;;;;;;4905402;29;20497;-84
2023/09/04 03:17:27;;;;;;;312.60;165.53;;;11.90;99.90;;;;;;4905075;29;20074;-83
2023/09/04 03:19:54;;;;;;;311.70;164.40;;;11.90;99.90;;;;;;4905363;29;20115;-83
2023/09/04 03:22:21;;;;;;;309.87;165.73;;;11.90;99.90;;;;;;4938266;29;20044;-83
2023/09/04 03:24:49;;;;;;;313.83;163.77;;;11.80;99.90;;;;;;4922234;29;20059;-83
2023/09/04 03:27:16;;;;;;;322.13;168.17;;;11.90;99.90;;;;;;4921065;29;20479;-83
2023/09/04 03:29:42;;;;;;;321.27;167.07;;;11.80;99.90;;;;;;4921088;29;20520;-83
2023/09/04 03:32:08;;;;;;;322.07;168.47;;;11.70;99.90;;;;;;4921888;29;20055;-83
2023/09/04 03:34:34;;;;;;;313.23;164.97;;;11.70;99.90;;;;;;4937442;29;20044;-83
2023/09/04 03:36:59;;;;;;;314.57;164.67;;;11.70;99.90;;;;;;4920703;29;20059;-84
2023/09/04 03:39:25;;;;;;;315.40;166.73;;;11.70;99.90;;;;;;4934299;29;20093;-84
2023/09/04 03:41:52;;;;;;;311.00;165.07;;;11.70;99.90;;;;;;4939487;29;20051;-83
2023/09/04 03:44:18;;;;;;;318.17;166.80;;;11.70;99.90;;;;;;4927308;29;20131;-83
2023/09/04 03:46:43;;;;;;;316.40;165.67;;;11.70;99.90;;;;;;4905063;29;20392;-84
2023/09/04 03:49:09;;;;;;;315.17;164.40;;;11.60;99.90;;;;;;4936545;29;20050;-83
2023/09/04 03:51:35;;;;;;;311.93;164.90;;;11.70;99.90;;;;;;4920495;29;20103;-84
2023/09/04 03:54:04;;;;;;;311.57;163.80;;;11.70;99.90;;;;;;4943701;29;20051;-84
2023/09/04 03:56:31;;;;;;;312.10;165.43;;;11.60;99.90;;;;;;4919423;29;20066;-84
2023/09/04 03:58:57;;;;;;;301.60;164.17;;;11.70;99.90;;;;;;4920520;29;20055;-84
2023/09/04 04:01:23;;;;;;;300.57;161.83;;;11.60;99.90;;;;;;4919654;29;20060;-84
2023/09/04 04:03:53;;;;;;;297.80;162.77;;;11.60;99.90;;;;;;4936569;29;20044;-84
2023/09/04 04:06:20;;;;;;;287.53;161.27;;;11.60;99.90;;;;;;4936752;29;20048;-83
2023/09/04 04:08:46;;;;;;;292.20;162.30;;;11.60;99.90;;;;;;4936922;29;20115;-84
2023/09/04 04:11:12;;;;;;;291.07;160.80;;;11.60;99.90;;;;;;4919815;29;20063;-83
2023/09/04 04:13:38;;;;;;;289.43;162.20;;;11.60;99.90;;;;;;4904163;29;20404;-83
2023/09/04 04:16:04;;;;;;;286.97;161.47;;;11.60;99.90;;;;;;4936533;29;20061;-85
2023/09/04 04:18:31;;;;;;;284.47;160.37;;;11.60;99.90;;;;;;4900986;29;20442;-84
2023/09/04 04:20:57;;;;;;;285.93;160.83;;;11.50;99.90;;;;;;4900572;29;20493;-83
2023/09/04 04:23:23;;;;;;;287.67;160.87;;;11.50;99.90;;;;;;4928653;29;20050;-83
2023/09/04 04:25:52;;;;;;;286.53;160.30;;;11.50;99.90;;;;;;4920301;29;20098;-83
2023/09/04 04:28:22;;;;;;;286.30;159.73;;;11.40;99.90;;;;;;4919577;29;20579;-83
2023/09/04 04:30:48;;;;;;;291.83;161.33;;;11.40;99.90;;;;;;4920344;29;20103;-83
2023/09/04 04:33:14;;;;;;;299.60;163.37;;;11.30;99.90;;;;;;4937005;29;20071;-83
2023/09/04 04:35:40;;;;;;;294.63;161.13;;;11.40;99.90;;;;;;4940176;29;20075;-83
2023/09/04 04:38:06;;;;;;;303.80;162.77;;;11.20;99.90;;;;;;4906004;29;20091;-83
2023/09/04 04:40:32;;;;;;;299.57;162.43;;;11.10;99.90;;;;;;4905836;29;20055;-84
2023/09/04 04:42:58;;;;;;;304.77;163.50;;;11.10;99.90;;;;;;4906758;29;20059;-84
2023/09/04 04:45:24;;;;;;;285.03;158.40;;;11.00;99.90;;;;;;4940810;29;20055;-83
2023/09/04 04:47:50;;;;;;;299.50;162.07;;;11.00;99.90;;;;;;4922954;29;20048;-83
2023/09/04 04:50:16;;;;;;;302.67;161.63;;;11.00;99.90;;;;;;4907423;29;20172;-83
2023/09/04 04:52:42;;;;;;;308.37;164.33;;;10.70;99.90;;;;;;4924160;29;20506;-84
2023/09/04 04:55:11;;;;;;;322.40;166.27;;;11.00;99.90;;;;;;4940689;29;20520;-83
2023/09/04 04:57:37;;;;;;;319.97;165.30;;;10.90;99.90;;;;;;4922443;29;20643;-83
2023/09/04 05:00:07;;;;;;;315.13;165.30;;;11.00;99.90;;;;;;4909059;29;20142;-83
2023/09/04 05:02:36;;;;;;;316.47;162.73;;;11.00;99.90;;;;;;4905188;29;20044;-84
2023/09/04 05:05:02;;;;;;;316.87;165.23;;;10.80;99.90;;;;;;4921371;29;20138;-84
2023/09/04 05:07:31;;;;;;;311.67;164.27;;;11.00;99.90;;;;;;4903843;29;20445;-86
2023/09/04 05:09:57;;;;;;;315.47;164.93;;;11.00;99.90;;;;;;4946272;28;20592;-84
2023/09/04 05:12:23;;;;;;;318.33;165.53;;;11.10;99.90;;;;;;4904760;29;20083;-84
2023/09/04 05:14:49;;;;;;;312.70;163.77;;;11.10;99.90;;;;;;4904534;29;20404;-85
2023/09/04 05:17:15;;;;;;;299.93;162.30;;;11.10;99.90;;;;;;4919299;29;20099;-84
2023/09/04 05:19:41;;;;;;;288.60;158.63;;;11.10;99.90;;;;;;4903845;29;20052;-84
2023/09/04 05:22:09;;;;;;;310.07;161.93;;;11.20;99.90;;;;;;4936364;29;20058;-84
2023/09/04 05:24:38;;;;;;;306.13;161.77;;;11.60;99.90;;;;;;4936839;29;20048;-83
2023/09/04 05:27:04;;;;;;;295.63;159.83;;;11.20;99.90;;;;;;4903375;29;20106;-83
2023/09/04 05:29:30;;;;;;;289.07;159.50;;;11.30;99.90;;;;;;4936879;29;20051;-83
2023/09/04 05:31:56;;;;;;;288.57;160.90;;;11.30;99.90;;;;;;4919924;29;20072;-84
2023/09/04 05:34:22;;;;;;;273.43;158.53;;;11.30;99.90;;;;;;4918665;29;20075;-84
2023/09/04 05:36:48;;;;;;;276.17;157.90;;;11.60;99.90;;;;;;4917406;29;20052;-82
2023/09/04 05:39:14;;;;;;;277.17;158.60;;;11.30;99.90;;;;;;4918397;29;20166;-86
2023/09/04 05:41:39;;;;;;;271.30;157.57;;;11.40;99.90;;;;;;4923809;29;20055;-83
2023/09/04 05:44:05;;;;;;;265.43;156.70;;;11.50;99.90;;;;;;4921906;29;20055;-83
2023/09/04 05:46:32;;;;;;;268.60;156.43;;;11.50;99.90;;;;;;4918030;29;20533;-86
2023/09/04 05:48:58;;;;;;;274.60;157.77;;;11.60;99.90;;;;;;4935149;29;20147;-85
2023/09/04 05:51:24;;;;;;;280.13;159.60;;;11.50;99.90;;;;;;4934788;29;20131;-83
2023/09/04 05:53:53;;;;;;;277.10;158.43;;;11.60;99.90;;;;;;4923187;29;20476;-85
2023/09/04 05:56:19;;;;;;;275.50;157.10;;;11.70;99.90;;;;;;4921288;29;20110;-84
2023/09/04 05:58:50;;;;;;;276.53;158.13;;;11.80;99.90;;;;;;4921517;29;20056;-84
2023/09/04 06:01:18;;;;;;;277.27;158.03;;;11.80;99.90;;;;;;4922002;29;20055;-86
2023/09/04 06:03:45;;;;;;;278.50;158.53;;;11.90;99.90;;;;;;4920961;29;20062;-86
2023/09/04 06:06:11;;;;;;;280.33;158.00;;;12.00;99.90;;;;;;4905699;29;20115;-84
2023/09/04 06:08:37;;;;;;;281.63;159.10;;;12.00;99.90;;;;;;4922461;29;20056;-85
2023/09/04 06:11:04;;;;;;;287.23;160.47;;;12.20;99.90;;;;;;4933350;29;20115;-86
2023/09/04 06:13:31;;;;;;;276.90;158.60;;;12.30;99.90;;;;;;4928507;29;20452;-86
2023/09/04 06:15:59;;;;;;;247.07;151.67;;;12.40;99.90;;;;;;4947674;28;20052;-86
2023/09/04 06:18:28;;;;;;;235.53;149.30;;;12.50;99.90;;;;;;4939039;29;20195;-86
2023/09/04 06:20:54;;;;;;;224.50;147.70;;;12.70;99.90;;;;;;4921625;29;20052;-85
2023/09/04 06:23:19;;;;;;;208.40;139.77;;;12.80;99.90;;;;;;4909513;29;20400;-84
2023/09/04 06:25:46;;;;;;;214.77;146.00;;;12.20;99.90;;;;;;4916986;29;20520;-85
2023/09/04 06:28:13;;;;;;;196.07;139.93;;;13.10;99.90;;;;;;4924936;29;20146;-84
2023/09/04 06:30:39;;;;;;;201.47;142.07;;;13.60;99.90;;;;;;4938743;29;20043;-86
2023/09/04 06:33:05;;;;;;;211.10;144.57;;;13.40;99.90;;;;;;4917524;29;20528;-85
2023/09/04 06:35:32;;;;;;;218.90;146.53;;;13.80;99.90;;;;;;4906451;29;20052;-85
2023/09/04 06:37:58;;;;;;;216.67;147.13;;;13.60;99.90;;;;;;4933576;29;20062;-86
2023/09/04 06:40:25;;;;;;;212.90;146.37;;;13.70;99.90;;;;;;4950252;28;20039;-86
2023/09/04 06:42:53;;;;;;;192.93;139.80;;;13.90;99.90;;;;;;4929153;29;20063;-86
2023/09/04 06:45:19;;;;;;;192.80;139.80;;;13.90;99.90;;;;;;4922378;29;20111;-84
2023/09/04 06:47:45;;;;;;;188.20;139.17;;;14.20;99.90;;;;;;4925824;29;20047;-84
2023/09/04 06:50:11;;;;;;;188.27;138.67;;;14.30;99.90;;;;;;4932473;29;20071;-87
2023/09/04 06:52:37;;;;;;;183.47;136.87;;;14.40;99.90;;;;;;4943338;29;20091;-84
2023/09/04 06:55:04;;;;;;;184.13;137.77;;;14.50;99.90;;;;;;4912316;29;20040;-84
2023/09/04 06:57:30;;;;;;;179.87;137.00;;;14.70;99.90;;;;;;4898258;29;20440;-83
2023/09/04 06:59:57;;;;;;;178.03;136.90;;;14.90;99.90;;;;;;4906517;29;20056;-84
2023/09/04 07:02:25;;;;;;;187.87;139.80;;;15.00;99.90;;;;;;4934270;29;20052;-86
2023/09/04 07:04:53;;;;;;;210.93;145.47;;;15.20;99.90;;;;;;4922874;29;20546;-87
2023/09/04 07:07:27;;;;;;;213.30;146.00;;;15.20;99.90;;;;;;4941033;29;20141;-85
2023/09/04 07:13:34;;;;;;;228.07;149.87;;;15.60;99.90;;;;;;4945068;29;20083;-85
2023/09/04 07:16:00;;;;;;;239.37;152.67;;;15.80;99.90;;;;;;4942893;29;20044;-83
2023/09/04 07:18:34;;;;;;;261.43;159.37;;;15.90;99.90;;;;;;4923804;29;20535;-92
2023/09/04 07:21:00;;;;;;;275.90;162.65;;;16.10;99.90;;;;;;4924099;29;20468;-84
2023/09/04 07:23:28;;;;;;;300.37;168.23;;;16.20;99.90;;;;;;4933620;29;20051;-90
2023/09/04 07:25:55;;;;;;;312.53;170.73;;;16.30;99.90;;;;;;4907055;29;20397;-81
2023/09/04 07:28:21;;;;;;;332.33;175.53;;;16.40;99.90;;;;;;4945264;29;20056;-89
2023/09/04 07:30:46;;;;;;;354.33;178.33;;;16.60;99.90;;;;;;4934589;29;20048;-90
2023/09/04 07:33:13;;;;;;;349.93;176.83;;;16.80;99.90;;;;;;4951677;29;20111;-93
2023/09/04 07:35:40;;;;;;;349.00;178.40;;;16.90;99.90;;;;;;4939708;29;20082;-85
2023/09/04 07:38:08;;;;;;;360.20;180.27;;;17.10;99.90;;;;;;4939559;29;20051;-85
2023/09/04 07:40:34;;;;;;;367.13;180.43;;;17.30;99.90;;;;;;4947174;29;20088;-87
2023/09/04 07:43:00;;;;;;;381.03;181.90;;;17.40;99.90;;;;;;4946352;29;20055;-85
2023/09/04 07:45:25;;;;;;;398.67;182.93;;;17.60;99.90;;;;;;4944970;29;20075;-85
2023/09/04 07:47:53;;;;;;;431.37;196.40;;;17.70;99.90;;;;;;4921331;29;20043;-88
2023/09/04 07:50:21;;;;;;;437.77;198.20;;;17.80;99.90;;;;;;4921254;29;20051;-86
2023/09/04 07:52:47;;;;;;;446.23;199.77;;;18.00;99.90;;;;;;4942855;29;20039;-89
2023/09/04 07:55:13;;;;;;;451.10;202.03;;;18.10;99.90;;;;;;4939699;28;20138;-87
2023/09/04 07:57:39;;;;;;;467.53;202.90;;;18.40;99.90;;;;;;4921867;29;20063;-88
2023/09/04 08:00:05;;;;;;;478.77;203.47;;;18.50;99.90;;;;;;4906170;29;20056;-87
2023/09/04 08:02:31;;;;;;;487.10;206.17;;;18.60;99.90;;;;;;4921324;29;20114;-88
2023/09/04 08:04:57;;;;;;;482.37;206.30;;;18.80;99.90;;;;;;4921051;29;20063;-85
2023/09/04 08:07:23;;;;;;;474.23;207.23;;;18.90;99.90;;;;;;4936937;29;20099;-85
2023/09/04 08:13:31;;;;;;;469.43;205.47;;;19.30;99.90;;;;;;4939046;29;20106;-85
2023/09/04 08:15:56;;;;;;;453.03;205.40;;;19.50;99.90;;;;;;4920951;29;20039;-84
2023/09/04 08:18:22;;;;;;;397.17;187.27;;;19.60;99.90;;;;;;4936224;29;20523;-87
2023/09/04 08:20:49;;;;;;;427.27;191.30;;;19.80;99.90;;;;;;4920374;29;20051;-83
2023/09/04 08:23:15;;;;;;;450.50;201.30;;;19.90;99.90;;;;;;4954829;28;20055;-84
2023/09/04 08:25:41;;;;;;;461.60;204.87;;;20.10;99.90;;;;;;4939946;29;20047;-84
2023/09/04 08:28:09;;;;;;;481.60;208.73;;;20.20;99.90;;;;;;4933852;29;20049;-90
2023/09/04 08:30:35;;;;;;;517.37;209.60;;;20.40;99.90;;;;;;4904762;29;20111;-83
2023/09/04 08:33:01;;;;;;;532.00;210.90;;;20.50;99.90;;;;;;4936510;29;20060;-85
2023/09/04 08:35:28;;;;;;;526.43;210.00;;;20.70;99.90;;;;;;4920275;29;20130;-85
2023/09/04 08:37:55;;;;;;;523.47;210.60;;;20.80;99.90;;;;;;4906777;29;20523;-85
2023/09/04 08:40:22;;;;;;;536.70;212.97;;;21.00;99.90;;;;;;4940993;29;20083;-85
2023/09/04 08:42:50;;;;;;;529.23;212.27;;;21.10;99.90;;;;;;4896107;29;20481;-85
2023/09/04 08:45:17;;;;;;;531.63;213.63;;;21.20;99.90;;;;;;4922322;29;20114;-85
2023/09/04 08:47:43;;;;;;;519.27;214.67;;;21.30;99.90;;;;;;4905645;29;20056;-86
2023/09/04 08:50:13;;;;;;;515.23;215.47;;;21.40;99.90;;;;;;4890276;29;20401;-85
2023/09/04 08:52:40;;;;;;;495.30;217.30;;;21.50;99.90;;;;;;4890705;29;20074;-86
2023/09/04 08:55:07;;;;;;;499.83;218.87;;;21.60;99.90;;;;;;4889139;29;20048;-85
2023/09/04 08:57:33;;;;;;;506.37;218.50;;;21.60;99.90;;;;;;4887622;29;20052;-86
2023/09/04 09:00:02;;;;;;;487.23;214.53;;;21.70;99.90;;;;;;4903097;29;20055;-87
2023/09/04 09:02:29;;;;;;;499.47;218.30;;;21.80;99.90;;;;;;4887953;29;20052;-87
2023/09/04 09:04:56;;;;;;;491.47;215.47;;;22.00;99.90;;;;;;4903512;29;20056;-86
2023/09/04 09:07:24;;;;;;;495.70;218.30;;;22.00;99.90;;;;;;4904437;29;20052;-86
2023/09/04 09:17:14;;;;;;;484.33;211.83;;;22.30;99.90;;;;;;4900161;29;20161;-86
2023/09/04 09:19:42;;;;;;;474.07;205.17;;;22.50;99.90;;;;;;4883708;29;20052;-88
2023/09/04 09:22:10;;;;;;;503.17;211.00;;;22.60;99.90;;;;;;4883475;29;20065;-89
2023/09/04 09:24:50;;;;;;;493.67;212.20;;;22.70;99.90;;;;;;4883299;29;20055;-85
2023/09/04 09:27:18;;;;;;;503.70;213.73;;;22.80;99.90;;;;;;4899531;29;20506;-87
2023/09/04 09:29:45;;;;;;;476.20;207.60;;;22.90;99.90;;;;;;4883657;29;20048;-91
2023/09/04 09:32:11;;;;;;;500.53;214.07;;;23.00;99.90;;;;;;4886947;29;20052;-89
2023/09/04 09:34:39;;;;;;;504.83;214.13;;;23.00;99.90;;;;;;4887369;29;20386;-87
2023/09/04 09:37:07;;;;;;;474.63;207.57;;;23.00;99.90;;;;;;4888329;29;20059;-88
2023/09/04 09:39:34;;;;;;;483.27;209.47;;;23.10;99.90;;;;;;4904848;29;20061;-86
2023/09/04 09:42:00;;;;;;;461.20;204.47;;;23.10;99.90;;;;;;4886587;29;20053;-87
2023/09/04 09:44:35;;;;;;;437.90;203.33;;;23.20;99.90;;;;;;4899234;29;20091;-87
2023/09/04 09:47:07;;;;;;;425.15;199.73;;;23.40;99.90;;;;;;4924385;29;20142;-87
2023/09/04 09:49:36;;;;;;;431.43;199.13;;;23.40;99.90;;;;;;4922453;29;20114;-86
2023/09/04 09:52:07;;;;;;;458.57;204.77;;;23.50;99.90;;;;;;4922020;29;20115;-92
2023/09/04 09:54:40;;;;;;;368.97;190.93;;;23.60;99.90;;;;;;4927959;29;20519;-83
2023/09/04 09:57:11;;;;;;;385.63;191.03;;;23.70;99.90;;;;;;4884612;29;20063;-82
2023/09/04 09:59:43;;;;;;;463.67;203.67;;;23.70;99.90;;;;;;4903824;29;20048;-87
2023/09/04 10:03:14;;;;;;;465.47;204.50;;;23.80;99.90;;;;;;4897514;29;20052;-90
2023/09/04 10:06:00;;;;;;;438.50;199.00;;;24.00;99.90;;;;;;4785757;29;20051;-90
2023/09/04 10:08:49;;;;;;;449.17;195.13;;;24.20;99.90;;;;;;4767322;30;20055;-90
2023/09/04 10:11:16;;;;;;;460.07;199.93;;;24.30;99.90;;;;;;4788644;29;20058;-91
2023/09/04 10:14:20;;;;;;;424.23;193.37;;;24.40;99.90;;;;;;4774283;30;20063;-90
2023/09/04 10:17:11;;;;;;;453.63;200.77;;;24.60;99.90;;;;;;4724194;30;20060;-89
2023/09/04 10:19:49;;;;;;;451.30;198.30;;;24.60;99.90;;;;;;4744853;30;20061;-91
2023/09/04 10:22:36;;;;;;;423.67;197.47;;;24.70;99.90;;;;;;4767696;30;20052;-90
2023/09/04 10:25:39;;;;;;;441.57;198.60;;;24.90;99.90;;;;;;4756069;30;20060;-90
2023/09/04 10:28:12;;;;;;;427.43;195.20;;;24.90;99.90;;;;;;4756106;30;20146;-91
2023/09/04 10:30:41;;;;;;;446.33;198.70;;;24.90;99.90;;;;;;4754907;30;20056;-90
2023/09/04 10:33:12;;;;;;;458.77;202.43;;;24.90;99.90;;;;;;4754256;30;20128;-88
2023/09/04 10:35:38;;;;;;;441.97;199.23;;;24.90;99.90;;;;;;4772716;30;20063;-86
2023/09/04 10:38:07;;;;;;;423.13;197.90;;;25.00;99.90;;;;;;4770438;30;20066;-86
2023/09/04 10:40:38;;;;;;;417.73;196.53;;;25.20;99.90;;;;;;4788077;29;20055;-89
2023/09/04 10:43:04;;;;;;;428.47;197.80;;;25.30;99.90;;;;;;4805969;29;20057;-88
2023/09/04 10:45:32;;;;;;;417.50;198.00;;;25.40;99.90;;;;;;4860823;29;20052;-87
2023/09/04 10:48:00;;;;;;;413.90;196.70;;;25.40;99.90;;;;;;4902611;29;20056;-88
2023/09/04 10:50:31;;;;;;;439.10;199.80;;;25.50;99.90;;;;;;4903564;29;20059;-90
2023/09/04 10:53:01;;;;;;;431.97;198.00;;;25.70;99.90;;;;;;4902370;29;20063;-90
2023/09/04 10:59:07;;;;;;;468.47;203.87;;;25.80;99.90;;;;;;4917697;29;20568;-88
2023/09/04 11:01:45;;;;;;;446.33;200.03;;;25.80;99.90;;;;;;4938269;29;20047;-88
2023/09/04 11:04:10;;;;;;;434.17;199.00;;;25.90;99.90;;;;;;4919824;29;20063;-90
2023/09/04 11:06:38;;;;;;;452.33;198.87;;;25.90;99.90;;;;;;4915281;29;20051;-85
2023/09/04 11:09:04;;;;;;;433.70;194.93;;;26.00;99.90;;;;;;4902027;29;20052;-87
2023/09/04 11:11:33;;;;;;;464.00;198.93;;;26.10;99.90;;;;;;4918873;29;20052;-90
2023/09/04 11:14:03;;;;;;;493.23;201.37;;;26.20;99.90;;;;;;4901499;29;20066;-88
2023/09/04 11:16:38;;;;;;;528.57;210.00;;;26.20;99.90;;;;;;4885922;29;20048;-88
2023/09/04 11:19:10;;;;;;;544.67;214.55;;;26.20;99.90;;;;;;4901506;29;20135;-88
2023/09/04 11:21:38;;;;;;;552.50;216.20;;;26.30;99.90;;;;;;4925115;29;20574;-88
2023/09/04 11:24:04;;;;;;;563.77;219.20;;;26.30;99.80;;;;;;4919982;29;20047;-87
2023/09/04 11:26:31;;;;;;;567.17;219.43;;;26.30;99.90;;;;;;4919577;29;20112;-88
2023/09/04 11:29:06;;;;;;;559.13;216.37;;;26.50;99.90;;;;;;4922093;29;20056;-90
2023/09/04 11:31:34;;;;;;;561.90;219.37;;;26.70;99.90;;;;;;4934961;29;20088;-88
2023/09/04 11:34:04;;;;;;;567.83;218.33;;;26.70;99.90;;;;;;4937002;29;20119;-89
2023/09/04 11:36:30;;;;;;;595.17;221.27;;;26.60;99.90;;;;;;4902751;29;20048;-87
2023/09/04 11:39:12;;;;;;;584.37;221.63;;;26.60;99.90;;;;;;4936812;29;20381;-88
2023/09/04 11:41:38;;;;;;;562.20;221.30;;;26.70;99.90;;;;;;4936301;29;20051;-87
2023/09/04 11:44:06;;;;;;;555.90;218.30;;;26.70;99.20;;;;;;4919592;29;20126;-89
2023/09/04 11:46:34;;;;;;;558.17;218.00;;;26.80;99.90;;;;;;4919590;29;20058;-88
2023/09/04 11:49:03;;;;;;;580.73;222.80;;;26.90;99.70;;;;;;4936923;29;20452;-86
2023/09/04 11:51:31;;;;;;;565.13;219.97;;;26.90;99.90;;;;;;4918858;29;20508;-86
2023/09/04 11:53:57;;;;;;;547.23;218.27;;;27.10;99.90;;;;;;4934785;29;20147;-86
2023/09/04 11:56:22;;;;;;;508.83;206.20;;;27.10;99.90;;;;;;4917783;29;20083;-85
2023/09/04 11:58:48;;;;;;;562.17;219.80;;;27.00;99.60;;;;;;4900465;29;20134;-86
2023/09/04 12:01:14;;;;;;;557.30;217.07;;;27.20;99.90;;;;;;4917515;29;20091;-85
2023/09/04 12:03:40;;;;;;;570.50;220.50;;;27.20;99.70;;;;;;4917704;29;20063;-91
2023/09/04 12:06:07;;;;;;;580.43;223.17;;;27.10;99.90;;;;;;4917399;29;20493;-86
2023/09/04 12:08:39;;;;;;;584.77;223.03;;;27.20;98.80;;;;;;4931595;29;20512;-89
2023/09/04 12:11:06;;;;;;;588.23;223.80;;;27.20;99.90;;;;;;4919196;29;20139;-88
2023/09/04 12:13:39;;;;;;;582.57;220.83;;;27.20;98.60;;;;;;4898651;29;20044;-88
2023/09/04 12:16:22;;;;;;;582.10;220.33;;;27.10;97.90;;;;;;4920013;29;20055;-90
2023/09/04 12:19:05;;;;;;;591.57;223.03;;;27.20;98.20;;;;;;4902122;29;20052;-90
2023/09/04 12:21:30;;;;;;;593.63;223.27;;;27.20;98.30;;;;;;4936151;29;20052;-89
2023/09/04 12:31:27;;;;;;;544.93;214.67;;;27.60;96.00;;;;;;4898323;29;20417;-88
2023/09/04 12:34:01;;;;;;;516.33;207.83;;;27.60;97.20;;;;;;4913511;29;20055;-90
2023/09/04 12:36:30;;;;;;;530.93;211.73;;;27.70;98.50;;;;;;4903302;29;20114;-87
2023/09/04 12:38:57;;;;;;;578.80;220.93;;;27.80;96.70;;;;;;4903183;29;20949;-87
2023/09/04 12:41:22;;;;;;;633.77;225.53;;;27.80;97.70;;;;;;4892400;29;20083;-87
2023/09/04 12:43:48;;;;;;;652.87;225.30;;;27.80;98.50;;;;;;4888204;29;20539;-87
2023/09/04 12:46:39;;;;;;;689.53;220.03;;;27.80;98.40;;;;;;4884345;29;20442;-88
2023/09/04 12:49:19;;;;;;;652.27;223.07;;;27.80;96.60;;;;;;4901122;29;20056;-89